RJNH(METAR)
03/23 14:00
METAR RJNH 230500Z 26012KT 9999 FEW030 SCT160 BKN210 13/M03 Q1013
RMK 1CU030 4AC160 A2994=
戻る
トップページへ戻る
IMOC Co,.Ltd.